Startpagina
METAR-TAF:

METAR-TAF

Vliegvelden :

Khartoem, Soedan

Luchthaven van Khartoem

breedte: 15-36N, lengte: 032-33E, hoogte: 382 m

Actueel weer

Dit bericht is 20 minuten geleden gemaakt, om 15:00 UTC
Wind 10 kt uit het zuiden
Temperatuur 36°C
Vochtigheid 29%
Druk 1009 hPa
Zicht 10 km of meer
geen wolken onder 1500 m en geen cumulonimbus

METAR: HSSS 221500Z 19010KT CAVOK 36/15 Q1009 NOSIG

Tijdstip: 18:20 (15:20 UTC)

Verwachting

Dit bericht is 4 uur en het 20 minuten geleden gemaakt, om 11:00 UTC
Verwachting geldig van 22 om 12 UTC tot 23 om 18 UTC
Wind 8 kt uit het zuidzuidwesten met uitschieters tot 18 kt
Zicht 10 km of meer
geen wolken onder 1500 m en geen cumulonimbus
Tijdelijke
van 22 om 15 UTC tot 22 om 21 UTC
Zicht 10 km of meer
Weinig wolken op 4000 ft
Verspreide wolken op 14000 ft

TAF: HSSS 221100Z 2212/2318 21008G18KT CAVOK TEMPO 2215/2221 9999 FEW040 SCT140

Waarnemingen en weersverwachtingen van meer dan 4000 vliegvelden (METAR en TAF).

De beschikbare stations zijn de gele en rode punten op de kaart.

Ga met uw muis naar het station om de naam te zien.

Klik dan om waarnemingen en weersverwachtingen te zien.

kaart wijzigen: klik op de groene knoppen met een zwart kruis om in te zoomen, op de groene knop met een streepje om uit te zoomen of op de groene pijlen voor aangrenzende kaarten.


METAR-TAF: